createdAt,value
2023-01-18T00:02:23.140Z,14.25
2023-01-18T00:05:11.304Z,13.27
2023-01-18T00:07:39.087Z,14.60
2023-01-18T00:13:38.991Z,14.73
2023-01-18T00:16:20.104Z,15.23
2023-01-18T00:18:52.724Z,15.35
2023-01-18T00:21:20.894Z,15.55
2023-01-18T00:23:48.435Z,15.13
2023-01-18T00:26:16.137Z,15.07
2023-01-18T00:28:43.716Z,15.98
2023-01-18T00:31:20.062Z,15.60
2023-01-18T00:33:49.872Z,17.92
2023-01-18T00:36:26.876Z,23.70
2023-01-18T00:38:58.494Z,21.20
2023-01-18T00:41:39.011Z,14.98
2023-01-18T00:44:15.861Z,18.98
2023-01-18T00:46:43.419Z,18.52
2023-01-18T00:49:11.043Z,18.70
2023-01-18T00:51:38.557Z,14.65
2023-01-18T00:54:06.029Z,22.13
2023-01-18T00:56:33.877Z,18.17
2023-01-18T00:59:01.402Z,19.23
2023-01-18T01:01:29.114Z,15.35
2023-01-18T01:04:15.625Z,17.63
2023-01-18T01:07:28.083Z,16.63
2023-01-18T01:09:58.306Z,16.08
2023-01-18T01:12:44.563Z,17.55
2023-01-18T01:15:30.415Z,15.93
2023-01-18T01:18:16.319Z,16.25
2023-01-18T01:23:53.717Z,13.55
2023-01-18T01:26:21.342Z,14.82
2023-01-18T01:28:59.681Z,14.43
2023-01-18T01:31:48.367Z,14.02
2023-01-18T01:34:16.030Z,13.18
2023-01-18T01:36:43.590Z,13.88
2023-01-18T01:39:11.307Z,14.65
2023-01-18T01:41:39.036Z,13.82
2023-01-18T01:44:43.216Z,14.70
2023-01-18T01:47:28.316Z,15.50
2023-01-18T01:50:03.287Z,19.08
2023-01-18T01:52:35.973Z,15.93
2023-01-18T01:55:12.290Z,14.13
2023-01-18T01:57:46.379Z,13.95
2023-01-18T02:00:29.699Z,14.98
2023-01-18T02:03:10.857Z,14.82
2023-01-18T02:05:45.729Z,13.50
2023-01-18T02:08:22.776Z,14.45
2023-01-18T02:10:53.783Z,13.88
2023-01-18T02:13:41.377Z,14.20
2023-01-18T02:17:08.884Z,14.05
2023-01-18T02:20:19.686Z,14.27
2023-01-18T02:23:02.202Z,14.23
2023-01-18T02:26:06.767Z,14.90
2023-01-18T02:28:37.729Z,15.05
2023-01-18T02:31:15.185Z,15.48
2023-01-18T02:33:47.218Z,17.00
2023-01-18T02:36:35.303Z,15.73
2023-01-18T02:39:23.575Z,16.25
2023-01-18T02:42:16.467Z,15.80
2023-01-18T02:45:05.362Z,16.05
2023-01-18T02:47:34.026Z,15.25
2023-01-18T02:50:10.559Z,15.90
2023-01-18T02:52:47.487Z,15.27
2023-01-18T02:55:36.711Z,15.77
2023-01-18T02:58:33.151Z,16.98
2023-01-18T03:01:15.285Z,15.73
2023-01-18T03:03:48.548Z,15.43
2023-01-18T03:06:16.144Z,15.63
2023-01-18T03:08:48.505Z,15.45
2023-01-18T03:11:24.863Z,16.38
2023-01-18T03:14:04.145Z,15.23
2023-01-18T03:16:58.560Z,15.50
2023-01-18T03:19:54.489Z,16.67
2023-01-18T03:22:44.067Z,16.13
2023-01-18T03:25:16.672Z,16.77
2023-01-18T03:28:05.972Z,15.38
2023-01-18T03:30:53.412Z,16.40
2023-01-18T03:33:43.337Z,17.08
2023-01-18T03:36:32.469Z,16.67
2023-01-18T03:39:05.388Z,17.33
2023-01-18T03:41:42.467Z,16.13
2023-01-18T03:44:14.900Z,15.63
2023-01-18T03:46:43.936Z,16.15
2023-01-18T03:49:12.422Z,16.67
2023-01-18T03:52:00.261Z,16.48
2023-01-18T03:54:45.380Z,16.23
2023-01-18T03:57:21.039Z,17.10
2023-01-18T03:59:49.086Z,16.85
2023-01-18T04:02:18.006Z,16.75
2023-01-18T04:04:45.514Z,16.65
2023-01-18T04:07:13.016Z,17.05
2023-01-18T04:09:40.527Z,17.25
2023-01-18T04:12:08.143Z,18.45
2023-01-18T04:14:35.611Z,18.30
2023-01-18T04:17:03.271Z,17.65
2023-01-18T04:19:30.803Z,18.13
2023-01-18T04:21:58.257Z,17.58
2023-01-18T04:24:25.854Z,17.23
2023-01-18T04:26:53.440Z,18.02
2023-01-18T04:29:21.420Z,18.33
2023-01-18T04:31:48.973Z,18.52
2023-01-18T04:34:16.561Z,18.55
2023-01-18T04:36:44.029Z,18.38
2023-01-18T04:39:13.307Z,18.50
2023-01-18T04:41:41.189Z,18.42
2023-01-18T04:44:08.919Z,19.25
2023-01-18T04:46:38.598Z,18.23
2023-01-18T04:49:06.924Z,18.38
2023-01-18T04:51:34.532Z,17.67
2023-01-18T04:54:02.074Z,17.63
2023-01-18T04:56:29.779Z,16.98
2023-01-18T04:58:57.512Z,17.98
2023-01-18T05:01:25.337Z,18.25
2023-01-18T05:03:53.882Z,18.73
2023-01-18T05:06:22.322Z,16.80
2023-01-18T05:08:50.692Z,18.95
2023-01-18T05:11:20.955Z,19.00
2023-01-18T05:13:48.882Z,18.25
2023-01-18T05:16:19.718Z,17.98
2023-01-18T05:18:48.446Z,19.58
2023-01-18T05:21:16.409Z,19.35
2023-01-18T05:23:44.282Z,18.10
2023-01-18T05:26:19.701Z,18.10
2023-01-18T05:28:48.233Z,19.13
2023-01-18T05:31:18.844Z,19.55
2023-01-18T05:33:46.625Z,20.25
2023-01-18T05:36:14.249Z,19.67
2023-01-18T05:38:41.887Z,18.52
2023-01-18T05:41:09.451Z,19.27
2023-01-18T05:43:38.288Z,19.58
2023-01-18T05:46:06.468Z,19.85
2023-01-18T05:48:34.065Z,19.98
2023-01-18T05:51:09.553Z,19.02
2023-01-18T05:53:37.607Z,19.75
2023-01-18T05:56:07.208Z,18.10
2023-01-18T05:58:35.648Z,19.23
2023-01-18T06:01:03.381Z,19.75
2023-01-18T06:03:31.027Z,20.83
2023-01-18T06:05:59.392Z,19.30
2023-01-18T06:08:26.945Z,20.00
2023-01-18T06:10:56.362Z,19.25
2023-01-18T06:13:25.151Z,18.98
2023-01-18T06:16:16.755Z,18.92
2023-01-18T06:18:51.760Z,19.08
2023-01-18T06:21:19.345Z,19.70
2023-01-18T06:23:46.968Z,19.80
2023-01-18T06:26:22.995Z,20.92
2023-01-18T06:28:53.642Z,20.83
2023-01-18T06:31:21.317Z,19.95
2023-01-18T06:33:48.966Z,19.95
2023-01-18T06:36:16.870Z,19.95
2023-01-18T06:38:45.560Z,19.38
2023-01-18T06:41:13.450Z,20.05
2023-01-18T06:43:41.116Z,21.52
2023-01-18T06:46:09.742Z,21.50
2023-01-18T06:48:48.240Z,21.27
2023-01-18T06:51:17.950Z,19.80
2023-01-18T06:53:45.534Z,21.13
2023-01-18T06:56:14.432Z,21.38
2023-01-18T06:58:42.172Z,20.95
2023-01-18T07:01:09.772Z,20.90
2023-01-18T07:03:38.948Z,19.30
2023-01-18T07:06:07.574Z,20.33
2023-01-18T07:08:35.755Z,20.20
2023-01-18T07:11:07.986Z,20.25
2023-01-18T07:13:36.360Z,20.30
2023-01-18T07:16:04.046Z,21.50
2023-01-18T07:18:34.042Z,21.33
2023-01-18T07:21:03.928Z,20.33
2023-01-18T07:23:31.404Z,21.17
2023-01-18T07:26:09.865Z,20.38
2023-01-18T07:28:37.733Z,22.17
2023-01-18T07:31:13.853Z,20.05
2023-01-18T07:33:45.847Z,20.13
2023-01-18T07:36:15.809Z,22.77
2023-01-18T07:38:52.680Z,22.02
2023-01-18T07:41:33.048Z,21.90
2023-01-18T07:44:10.860Z,22.98
2023-01-18T07:46:38.823Z,20.15
2023-01-18T07:52:44.296Z,22.35
2023-01-18T07:55:21.702Z,23.83
2023-01-18T07:57:49.551Z,22.92
2023-01-18T08:00:19.026Z,22.45
2023-01-18T08:02:55.620Z,21.45
2023-01-18T08:05:50.578Z,20.92
2023-01-18T08:08:33.802Z,20.17
2023-01-18T08:12:42.311Z,20.40
2023-01-18T08:14:47.347Z,21.35
2023-01-18T08:17:18.781Z,20.92
2023-01-18T08:20:06.227Z,22.25
2023-01-18T08:22:59.224Z,22.30
2023-01-18T08:26:23.058Z,22.90
2023-01-18T08:33:35.757Z,22.58
2023-01-18T08:37:42.782Z,23.30
2023-01-18T08:40:09.870Z,21.90
2023-01-18T08:42:37.373Z,22.27
2023-01-18T08:45:08.647Z,22.10
2023-01-18T08:47:36.564Z,22.25
2023-01-18T08:50:07.147Z,21.55
2023-01-18T08:52:37.850Z,23.10
2023-01-18T08:55:08.106Z,23.73
2023-01-18T08:57:39.580Z,23.45
2023-01-18T09:00:37.153Z,23.92
2023-01-18T09:03:14.756Z,24.38
2023-01-18T09:06:07.899Z,24.77
2023-01-18T09:12:44.205Z,25.20
2023-01-18T09:16:42.393Z,25.40
2023-01-18T09:19:13.067Z,25.77
2023-01-18T09:22:24.158Z,24.45
2023-01-18T09:33:37.894Z,24.33
2023-01-18T09:44:42.229Z,25.10
2023-01-18T09:47:20.013Z,25.95
2023-01-18T09:50:04.351Z,25.70
2023-01-18T09:53:09.239Z,26.67
2023-01-18T09:59:42.601Z,27.90
2023-01-18T10:02:30.906Z,28.38
2023-01-18T10:05:23.972Z,26.45
2023-01-18T10:08:05.249Z,26.67
2023-01-18T10:21:30.255Z,26.50
2023-01-18T11:07:56.389Z,24.15
2023-01-18T13:02:39.169Z,24.25
2023-01-18T13:05:19.216Z,24.35
2023-01-18T13:11:10.065Z,26.77
2023-01-18T13:14:17.886Z,28.45
2023-01-18T13:17:03.449Z,26.40
2023-01-18T13:19:45.390Z,26.67
2023-01-18T16:59:27.399Z,23.95
2023-01-18T17:50:22.944Z,24.08
2023-01-18T17:52:54.317Z,24.77
2023-01-18T17:55:27.444Z,26.40
2023-01-18T17:57:58.469Z,24.98
2023-01-18T18:00:29.070Z,24.75
2023-01-18T18:03:29.452Z,24.35
2023-01-18T18:06:02.526Z,24.17
2023-01-18T18:08:30.163Z,24.55
2023-01-18T18:11:00.050Z,25.20
2023-01-18T18:13:28.527Z,25.13
2023-01-18T18:15:57.035Z,24.73
2023-01-18T18:18:24.921Z,25.95
2023-01-18T18:21:04.124Z,25.77
2023-01-18T18:23:31.889Z,25.30
2023-01-18T18:26:00.354Z,25.65
2023-01-18T18:28:29.631Z,25.38
2023-01-18T18:30:58.607Z,26.25
2023-01-18T18:33:27.886Z,26.33
2023-01-18T18:35:58.240Z,24.98
2023-01-18T18:38:27.465Z,26.95
2023-01-18T18:40:55.244Z,26.80
2023-01-18T18:43:24.725Z,26.67
2023-01-18T18:45:52.513Z,26.20
2023-01-18T18:48:20.330Z,25.30
2023-01-18T18:50:47.987Z,26.52
2023-01-18T18:53:16.893Z,26.05
2023-01-18T18:55:44.866Z,25.02
2023-01-18T18:58:13.601Z,25.80
2023-01-18T20:56:47.424Z,29.17
2023-01-18T23:20:51.075Z,24.50
2023-01-18T23:23:40.828Z,24.92
2023-01-18T23:31:41.250Z,26.52
2023-01-18T23:34:29.752Z,25.63
2023-01-18T23:37:39.552Z,25.38
2023-01-18T23:43:52.901Z,25.05
2023-01-18T23:46:42.181Z,24.73
2023-01-18T23:49:31.861Z,24.23
2023-01-18T23:52:19.921Z,25.20
2023-01-18T23:54:47.663Z,25.13
2023-01-18T23:57:15.573Z,25.42
